createdAt,value
2022-10-08T00:00:58.944Z,89.51
2022-10-08T00:03:29.578Z,89.59
2022-10-08T00:06:00.456Z,89.96
2022-10-08T00:08:29.171Z,90.13
2022-10-08T00:10:58.304Z,90.20
2022-10-08T00:13:26.492Z,90.50
2022-10-08T00:15:54.125Z,90.48
2022-10-08T00:18:21.682Z,90.54
2022-10-08T00:20:52.074Z,90.70
2022-10-08T00:23:21.750Z,90.26
2022-10-08T00:25:48.282Z,90.59
2022-10-08T00:28:14.835Z,90.58
2022-10-08T00:30:41.690Z,90.63
2022-10-08T00:33:10.098Z,90.91
2022-10-08T00:35:40.698Z,90.72
2022-10-08T00:38:07.766Z,90.56
2022-10-08T00:40:44.959Z,90.53
2022-10-08T00:43:16.580Z,90.21
2022-10-08T00:45:48.643Z,89.75
2022-10-08T00:48:25.492Z,89.22
2022-10-08T00:50:52.386Z,89.37
2022-10-08T00:53:18.863Z,89.49
2022-10-08T00:55:45.402Z,89.47
2022-10-08T00:58:16.664Z,89.63
2022-10-08T01:00:44.677Z,89.50
2022-10-08T01:03:14.310Z,89.35
2022-10-08T01:05:40.793Z,89.49
2022-10-08T01:08:26.376Z,89.54
2022-10-08T01:11:26.852Z,89.93
2022-10-08T01:14:32.105Z,90.06
2022-10-08T01:17:16.791Z,89.83
2022-10-08T01:20:16.802Z,89.89
2022-10-08T01:23:25.466Z,89.83
2022-10-08T01:25:55.800Z,89.65
2022-10-08T01:28:44.874Z,89.77
2022-10-08T01:31:29.507Z,89.68
2022-10-08T01:34:03.366Z,90.09
2022-10-08T01:36:36.903Z,90.10
2022-10-08T01:39:08.829Z,90.17
2022-10-08T01:41:36.066Z,90.28
2022-10-08T01:44:13.679Z,90.30
2022-10-08T01:46:43.181Z,90.43
2022-10-08T01:49:17.565Z,90.54
2022-10-08T01:52:33.715Z,90.71
2022-10-08T01:55:08.195Z,90.69
2022-10-08T01:57:38.107Z,90.81
2022-10-08T02:00:10.770Z,90.82
2022-10-08T02:02:37.490Z,90.43
2022-10-08T02:05:05.245Z,90.31
2022-10-08T02:07:35.833Z,90.54
2022-10-08T02:10:21.493Z,90.62
2022-10-08T02:12:48.496Z,90.40
2022-10-08T02:15:29.076Z,90.46
2022-10-08T02:18:16.270Z,90.68
2022-10-08T02:20:52.554Z,90.93
2022-10-08T02:23:37.709Z,90.80
2022-10-08T02:26:08.144Z,90.90
2022-10-08T02:28:57.997Z,91.02
2022-10-08T02:31:42.932Z,91.25
2022-10-08T02:34:18.488Z,91.25
2022-10-08T02:36:51.453Z,91.15
2022-10-08T02:39:20.902Z,91.51
2022-10-08T02:41:52.237Z,91.49
2022-10-08T02:44:33.594Z,91.69
2022-10-08T02:47:04.466Z,91.70
2022-10-08T02:49:40.036Z,91.55
2022-10-08T02:52:09.063Z,91.62
2022-10-08T02:54:42.247Z,91.74
2022-10-08T02:57:23.786Z,91.58
2022-10-08T02:59:50.969Z,91.38
2022-10-08T03:02:27.865Z,91.20
2022-10-08T03:04:59.430Z,91.12
2022-10-08T03:07:29.995Z,90.98
2022-10-08T03:09:58.790Z,90.62
2022-10-08T03:12:26.191Z,90.15
2022-10-08T03:14:52.759Z,90.97
2022-10-08T03:17:27.734Z,90.59
2022-10-08T03:19:54.692Z,90.51
2022-10-08T03:22:21.235Z,90.65
2022-10-08T03:24:48.194Z,90.58
2022-10-08T03:27:14.810Z,90.20
2022-10-08T03:29:41.349Z,90.44
2022-10-08T03:32:08.526Z,90.54
2022-10-08T03:34:35.009Z,90.28
2022-10-08T03:37:01.583Z,90.45
2022-10-08T03:39:28.052Z,90.01
2022-10-08T03:41:54.539Z,89.97
2022-10-08T03:44:21.115Z,89.85
2022-10-08T03:46:47.601Z,89.30
2022-10-08T03:49:14.080Z,89.21
2022-10-08T03:51:40.684Z,89.39
2022-10-08T03:54:07.150Z,89.00
2022-10-08T03:56:34.424Z,89.12
2022-10-08T03:59:03.766Z,89.01
2022-10-08T04:01:30.302Z,88.94
2022-10-08T04:03:56.848Z,89.14
2022-10-08T04:06:23.438Z,88.89
2022-10-08T04:08:50.164Z,88.81
2022-10-08T04:11:17.704Z,88.75
2022-10-08T04:13:44.743Z,88.54
2022-10-08T04:16:17.126Z,88.70
2022-10-08T04:18:44.879Z,88.69
2022-10-08T04:21:14.653Z,88.74
2022-10-08T04:23:42.400Z,88.76
2022-10-08T04:26:10.544Z,88.87
2022-10-08T04:28:39.319Z,89.31
2022-10-08T04:31:07.752Z,89.48
2022-10-08T04:33:35.748Z,89.31
2022-10-08T04:36:17.238Z,89.56
2022-10-08T04:38:44.793Z,89.38
2022-10-08T04:41:17.023Z,89.56
2022-10-08T04:43:44.911Z,89.56
2022-10-08T04:46:14.509Z,89.64
2022-10-08T04:48:46.604Z,89.36
2022-10-08T04:51:13.414Z,88.94
2022-10-08T04:53:39.898Z,89.11
2022-10-08T04:56:17.941Z,89.07
2022-10-08T04:58:45.004Z,89.09
2022-10-08T05:01:14.720Z,89.44
2022-10-08T05:03:47.568Z,89.74
2022-10-08T05:06:15.634Z,89.68
2022-10-08T05:08:42.543Z,89.83
2022-10-08T05:11:09.595Z,90.09
2022-10-08T05:13:36.873Z,90.23
2022-10-08T05:16:08.965Z,90.03
2022-10-08T05:18:36.742Z,90.23
2022-10-08T05:21:11.765Z,90.41
2022-10-08T05:23:38.464Z,90.44
2022-10-08T05:26:46.658Z,90.70
2022-10-08T05:29:12.841Z,90.54
2022-10-08T05:31:39.819Z,90.87
2022-10-08T05:34:06.357Z,90.93
2022-10-08T05:36:34.240Z,91.02
2022-10-08T05:39:02.342Z,91.15
2022-10-08T05:41:31.326Z,91.45
2022-10-08T05:43:59.088Z,91.18
2022-10-08T05:46:27.844Z,91.18
2022-10-08T05:48:55.804Z,91.31
2022-10-08T05:51:23.353Z,91.24
2022-10-08T05:53:52.258Z,91.28
2022-10-08T05:56:23.203Z,91.21
2022-10-08T05:58:50.979Z,91.24
2022-10-08T06:01:29.738Z,91.44
2022-10-08T06:03:58.957Z,90.93
2022-10-08T06:06:26.164Z,90.87
2022-10-08T06:08:58.203Z,90.53
2022-10-08T06:11:25.159Z,89.90
2022-10-08T06:13:55.076Z,89.63
2022-10-08T06:16:22.447Z,89.71
2022-10-08T06:18:49.307Z,89.33
2022-10-08T06:21:24.359Z,89.35
2022-10-08T06:23:53.520Z,89.26
2022-10-08T06:26:22.164Z,89.12
2022-10-08T06:28:49.588Z,89.85
2022-10-08T06:31:17.528Z,90.16
2022-10-08T06:33:44.588Z,90.55
2022-10-08T06:36:14.130Z,90.86
2022-10-08T06:38:40.887Z,91.23
2022-10-08T06:41:07.679Z,91.36
2022-10-08T06:43:34.290Z,91.72
2022-10-08T06:46:04.606Z,91.69
2022-10-08T06:48:31.336Z,91.72
2022-10-08T06:51:02.905Z,91.94
2022-10-08T06:53:29.993Z,92.35
2022-10-08T06:56:00.881Z,92.65
2022-10-08T06:58:27.944Z,93.09
2022-10-08T07:01:14.012Z,93.79
2022-10-08T07:03:40.592Z,93.82
2022-10-08T07:06:10.005Z,94.17
2022-10-08T07:08:36.479Z,94.81
2022-10-08T07:11:14.929Z,95.08
2022-10-08T07:13:42.470Z,94.94
2022-10-08T07:16:20.752Z,95.37
2022-10-08T07:18:49.750Z,96.34
2022-10-08T07:21:18.190Z,96.53
2022-10-08T07:23:45.281Z,96.25
2022-10-08T07:26:15.834Z,96.61
2022-10-08T07:29:04.024Z,96.66
2022-10-08T07:31:33.583Z,96.94
2022-10-08T07:34:01.922Z,97.75
2022-10-08T07:36:30.072Z,97.75
2022-10-08T07:39:08.464Z,98.84
2022-10-08T07:41:35.086Z,98.86
2022-10-08T07:44:02.491Z,99.21
2022-10-08T07:46:31.128Z,99.44
2022-10-08T07:49:01.734Z,99.62
2022-10-08T07:51:31.431Z,99.97
2022-10-08T07:54:02.527Z,99.76
2022-10-08T07:56:29.888Z,99.91
2022-10-08T07:58:56.437Z,99.84
2022-10-08T08:01:29.436Z,99.92
2022-10-08T08:03:59.386Z,99.96
2022-10-08T08:06:26.135Z,100.00
2022-10-08T08:08:53.881Z,100.00
2022-10-08T08:11:22.845Z,100.00
2022-10-08T08:13:50.069Z,100.00
2022-10-08T08:16:22.742Z,100.00
2022-10-08T08:18:50.704Z,99.91
2022-10-08T08:21:20.123Z,99.79
2022-10-08T08:23:49.208Z,99.53
2022-10-08T08:26:29.446Z,98.72
2022-10-08T08:28:58.585Z,97.44
2022-10-08T08:31:34.366Z,97.14
2022-10-08T08:34:10.833Z,96.15
2022-10-08T08:36:42.892Z,95.62
2022-10-08T08:39:14.103Z,95.56
2022-10-08T08:42:14.603Z,95.54
2022-10-08T08:44:43.680Z,96.36
2022-10-08T08:47:18.916Z,97.11
2022-10-08T08:49:52.291Z,97.03
2022-10-08T08:52:23.688Z,96.68
2022-10-08T08:54:53.185Z,96.05
2022-10-08T08:57:40.906Z,96.85
2022-10-08T09:00:16.256Z,96.79
2022-10-08T09:02:55.736Z,97.83
2022-10-08T09:05:25.184Z,98.15
2022-10-08T09:07:57.743Z,98.62
2022-10-08T09:10:35.300Z,98.46
2022-10-08T09:13:02.771Z,98.46
2022-10-08T09:15:36.222Z,98.27
2022-10-08T09:18:04.664Z,98.34
2022-10-08T09:20:31.754Z,98.80
2022-10-08T09:22:59.490Z,98.10
2022-10-08T09:25:32.833Z,97.82
2022-10-08T09:28:07.412Z,97.69
2022-10-08T09:30:39.348Z,97.78
2022-10-08T09:33:26.065Z,97.69
2022-10-08T09:35:53.902Z,97.94
2022-10-08T09:38:23.436Z,98.08
2022-10-08T09:41:03.631Z,98.24
2022-10-08T09:43:31.922Z,97.26
2022-10-08T09:45:58.632Z,98.02
2022-10-08T09:48:29.529Z,98.51
2022-10-08T09:50:59.075Z,99.17
2022-10-08T09:53:43.761Z,99.54
2022-10-08T09:56:12.541Z,97.38
2022-10-08T09:58:57.050Z,98.15
2022-10-08T10:01:25.466Z,98.35
2022-10-08T10:04:00.608Z,98.62
2022-10-08T10:06:30.418Z,98.08
2022-10-08T10:09:01.949Z,98.20
2022-10-08T10:11:48.258Z,98.04
2022-10-08T10:14:29.260Z,97.67
2022-10-08T10:17:02.528Z,97.66
2022-10-08T10:19:35.308Z,96.96
2022-10-08T10:22:09.584Z,96.05
2022-10-08T10:24:53.364Z,96.01
2022-10-08T10:27:33.143Z,95.79
2022-10-08T10:30:06.241Z,95.40
2022-10-08T10:32:49.195Z,93.47
2022-10-08T10:35:20.922Z,92.77
2022-10-08T10:37:52.367Z,91.11
2022-10-08T10:40:35.633Z,91.49
2022-10-08T10:43:28.018Z,90.00
2022-10-08T10:45:58.291Z,89.30
2022-10-08T10:48:24.884Z,87.28
2022-10-08T10:51:03.479Z,85.37
2022-10-08T10:53:47.149Z,85.91
2022-10-08T10:56:19.950Z,84.34
2022-10-08T10:59:13.775Z,84.57
2022-10-08T11:02:11.305Z,84.38
2022-10-08T11:05:01.402Z,83.32
2022-10-08T11:08:07.503Z,82.92
2022-10-08T11:11:00.368Z,82.62
2022-10-08T11:14:02.242Z,82.91
2022-10-08T11:16:36.300Z,81.29
2022-10-08T11:19:06.137Z,80.86
2022-10-08T11:22:03.689Z,82.88
2022-10-08T11:24:56.904Z,82.74
2022-10-08T11:27:47.678Z,81.41
2022-10-08T11:30:14.370Z,80.95
2022-10-08T11:32:45.415Z,81.69
2022-10-08T11:35:12.026Z,81.26
2022-10-08T11:37:55.294Z,79.79
2022-10-08T11:40:44.701Z,80.18
2022-10-08T11:43:17.234Z,79.44
2022-10-08T11:45:46.105Z,78.88
2022-10-08T11:48:37.518Z,79.07
2022-10-08T11:51:18.951Z,76.98
2022-10-08T11:54:16.592Z,76.92
2022-10-08T11:56:46.602Z,77.37
2022-10-08T11:59:32.946Z,76.23
2022-10-08T12:02:21.727Z,76.63
2022-10-08T12:04:49.589Z,76.71
2022-10-08T12:07:25.179Z,73.69
2022-10-08T12:10:06.689Z,75.09
2022-10-08T12:12:51.289Z,74.28
2022-10-08T12:15:24.045Z,74.45
2022-10-08T12:17:51.733Z,72.00
2022-10-08T12:20:38.345Z,73.55
2022-10-08T12:23:04.811Z,72.31
2022-10-08T12:25:42.506Z,72.30
2022-10-08T12:28:20.941Z,72.90
2022-10-08T12:30:52.616Z,71.47
2022-10-08T12:33:20.598Z,72.23
2022-10-08T12:36:13.991Z,70.80
2022-10-08T12:39:06.030Z,70.29
2022-10-08T12:41:51.196Z,71.11
2022-10-08T12:44:26.512Z,71.27
2022-10-08T12:47:06.357Z,71.17
2022-10-08T12:49:43.476Z,71.15
2022-10-08T12:52:13.092Z,71.64
2022-10-08T12:54:46.508Z,72.20
2022-10-08T12:57:16.797Z,73.36
2022-10-08T12:59:43.500Z,73.47
2022-10-08T13:02:37.687Z,73.32
2022-10-08T13:05:25.464Z,71.59
2022-10-08T13:07:52.266Z,71.41
2022-10-08T13:10:25.363Z,71.29
2022-10-08T13:13:06.584Z,70.81
2022-10-08T13:15:34.733Z,70.34
2022-10-08T13:18:13.830Z,69.41
2022-10-08T13:20:55.494Z,69.51
2022-10-08T13:23:32.191Z,69.66
2022-10-08T13:26:00.690Z,70.90
2022-10-08T13:28:55.650Z,69.56
2022-10-08T13:31:23.783Z,71.41
2022-10-08T13:33:50.828Z,72.33
2022-10-08T13:36:22.783Z,73.25
2022-10-08T13:38:49.200Z,72.42
2022-10-08T13:41:25.191Z,72.57
2022-10-08T13:43:51.677Z,74.21
2022-10-08T13:46:18.338Z,77.40
2022-10-08T13:48:45.244Z,77.99
2022-10-08T13:51:11.895Z,79.99
2022-10-08T13:53:42.013Z,82.09
2022-10-08T13:56:08.485Z,83.99
2022-10-08T13:58:35.022Z,84.52
2022-10-08T14:01:01.585Z,85.80
2022-10-08T14:03:28.075Z,85.36
2022-10-08T14:05:54.604Z,85.85
2022-10-08T14:08:27.750Z,85.04
2022-10-08T14:10:58.104Z,79.98
2022-10-08T14:13:25.458Z,77.33
2022-10-08T14:15:52.099Z,73.60
2022-10-08T14:18:18.690Z,73.85
2022-10-08T14:20:45.163Z,73.24
2022-10-08T14:23:14.732Z,72.92
2022-10-08T14:25:41.272Z,73.53
2022-10-08T14:28:07.955Z,74.07
2022-10-08T14:30:34.564Z,74.16
2022-10-08T14:33:01.142Z,75.00
2022-10-08T14:35:27.636Z,74.83
2022-10-08T14:37:54.122Z,76.23
2022-10-08T14:40:22.453Z,76.03
2022-10-08T14:42:50.105Z,75.59
2022-10-08T14:45:17.471Z,75.90
2022-10-08T14:47:43.939Z,76.33
2022-10-08T14:50:10.558Z,76.80
2022-10-08T14:52:41.753Z,76.62
2022-10-08T14:55:10.810Z,75.62
2022-10-08T14:57:37.260Z,75.06
2022-10-08T15:00:04.920Z,74.91
2022-10-08T15:02:31.704Z,73.92
2022-10-08T15:04:58.235Z,74.36
2022-10-08T15:07:24.781Z,74.73
2022-10-08T15:09:51.631Z,75.10
2022-10-08T15:12:18.069Z,75.05
2022-10-08T15:14:44.563Z,75.63
2022-10-08T15:17:11.016Z,74.80
2022-10-08T15:19:37.533Z,75.09
2022-10-08T15:22:04.051Z,75.13
2022-10-08T15:24:30.497Z,76.05
2022-10-08T15:26:57.078Z,76.45
2022-10-08T15:29:23.583Z,76.20
2022-10-08T15:31:50.933Z,75.52
2022-10-08T15:34:19.529Z,76.04
2022-10-08T15:36:46.336Z,75.80
2022-10-08T15:39:15.200Z,75.67
2022-10-08T15:41:44.330Z,75.54
2022-10-08T15:44:14.010Z,75.89
2022-10-08T15:46:40.498Z,78.24
2022-10-08T15:49:07.065Z,77.39
2022-10-08T15:51:36.858Z,77.14
2022-10-08T15:54:03.647Z,77.41
2022-10-08T15:56:30.223Z,77.89
2022-10-08T15:58:58.491Z,78.25
2022-10-08T16:01:25.736Z,78.06
2022-10-08T16:03:54.377Z,78.57
2022-10-08T16:06:23.748Z,78.51
2022-10-08T16:08:51.160Z,78.78
2022-10-08T16:11:26.524Z,79.19
2022-10-08T16:14:09.614Z,79.46
2022-10-08T16:16:37.188Z,79.06
2022-10-08T16:19:06.439Z,79.66
2022-10-08T16:21:35.471Z,79.98
2022-10-08T16:24:02.213Z,80.26
2022-10-08T16:26:31.804Z,80.76
2022-10-08T16:29:00.731Z,81.23
2022-10-08T16:31:29.964Z,81.31
2022-10-08T16:34:01.324Z,81.38
2022-10-08T16:36:29.802Z,81.31
2022-10-08T16:38:57.673Z,81.70
2022-10-08T16:41:26.875Z,81.65
2022-10-08T16:43:55.698Z,82.40
2022-10-08T16:46:27.921Z,82.75
2022-10-08T16:49:11.811Z,83.09
2022-10-08T16:51:38.729Z,83.67
2022-10-08T16:54:07.873Z,83.72
2022-10-08T16:56:37.481Z,84.10
2022-10-08T16:59:10.181Z,84.76
2022-10-08T17:01:38.341Z,84.77
2022-10-08T17:04:06.613Z,84.93
2022-10-08T17:06:34.024Z,85.25
2022-10-08T17:09:00.479Z,85.41
2022-10-08T17:11:27.021Z,85.29
2022-10-08T17:13:56.224Z,85.54
2022-10-08T17:16:24.910Z,85.59
2022-10-08T17:18:56.122Z,85.54
2022-10-08T17:21:23.389Z,85.59
2022-10-08T17:23:49.988Z,85.45
2022-10-08T17:26:19.497Z,84.98
2022-10-08T17:28:48.100Z,84.61
2022-10-08T17:31:18.476Z,84.42
2022-10-08T17:33:44.987Z,84.02
2022-10-08T17:36:12.727Z,84.20
2022-10-08T17:38:41.659Z,84.42
2022-10-08T17:41:23.164Z,84.61
2022-10-08T17:43:50.459Z,84.43
2022-10-08T17:46:18.446Z,84.45
2022-10-08T17:48:45.481Z,84.40
2022-10-08T17:51:14.501Z,84.31
2022-10-08T17:53:41.933Z,84.50
2022-10-08T17:56:11.214Z,84.27
2022-10-08T17:58:38.760Z,84.18
2022-10-08T18:01:10.600Z,82.87
2022-10-08T18:03:38.665Z,82.48
2022-10-08T18:06:07.137Z,82.15
2022-10-08T18:08:33.957Z,82.29
2022-10-08T18:11:05.856Z,82.56
2022-10-08T18:13:33.987Z,82.84
2022-10-08T18:16:13.188Z,83.70
2022-10-08T18:18:40.793Z,83.72
2022-10-08T18:21:07.840Z,84.11
2022-10-08T18:23:36.303Z,84.14
2022-10-08T18:26:22.457Z,84.27
2022-10-08T18:28:51.465Z,84.21
2022-10-08T18:31:19.179Z,84.09
2022-10-08T18:33:47.673Z,84.38
2022-10-08T18:36:23.626Z,84.30
2022-10-08T18:39:01.501Z,84.26
2022-10-08T18:41:33.914Z,84.27
2022-10-08T18:44:00.989Z,83.91
2022-10-08T18:46:28.796Z,83.88
2022-10-08T18:48:55.836Z,83.78
2022-10-08T18:51:27.353Z,83.35
2022-10-08T18:53:56.282Z,82.46
2022-10-08T18:56:28.857Z,81.92
2022-10-08T18:58:57.277Z,81.64
2022-10-08T19:01:26.797Z,81.60
2022-10-08T19:03:56.332Z,81.08
2022-10-08T19:06:25.600Z,80.78
2022-10-08T19:08:52.660Z,80.78
2022-10-08T19:11:21.863Z,80.68
2022-10-08T19:13:49.139Z,80.21
2022-10-08T19:16:16.206Z,80.33
2022-10-08T19:18:52.259Z,79.96
2022-10-08T19:21:19.440Z,80.24
2022-10-08T19:23:45.999Z,80.44
2022-10-08T19:26:14.316Z,80.19
2022-10-08T19:28:46.244Z,80.41
2022-10-08T19:31:12.819Z,80.33
2022-10-08T19:33:39.329Z,80.29
2022-10-08T19:36:06.169Z,80.59
2022-10-08T19:38:32.652Z,80.92
2022-10-08T19:40:59.171Z,81.15
2022-10-08T19:43:25.657Z,81.00
2022-10-08T19:45:52.168Z,81.28
2022-10-08T19:48:18.639Z,81.28
2022-10-08T19:50:45.161Z,81.16
2022-10-08T19:53:11.662Z,81.34
2022-10-08T19:55:38.399Z,81.34
2022-10-08T19:58:04.972Z,81.82
2022-10-08T20:00:31.499Z,82.26
2022-10-08T20:02:58.058Z,82.76
2022-10-08T20:05:24.538Z,82.74
2022-10-08T20:07:51.047Z,83.30
2022-10-08T20:10:17.575Z,83.78
2022-10-08T20:12:44.481Z,84.26
2022-10-08T20:15:11.183Z,84.42
2022-10-08T20:17:37.834Z,84.45
2022-10-08T20:20:27.810Z,84.94
2022-10-08T20:22:51.794Z,84.91
2022-10-08T20:25:20.432Z,85.14
2022-10-08T20:27:47.918Z,85.04
2022-10-08T20:30:16.572Z,85.18
2022-10-08T20:32:43.284Z,85.17
2022-10-08T20:35:10.005Z,85.26
2022-10-08T20:37:36.631Z,85.78
2022-10-08T20:40:03.301Z,85.85
2022-10-08T20:42:32.090Z,85.94
2022-10-08T20:44:58.827Z,86.29
2022-10-08T20:47:25.279Z,86.13
2022-10-08T20:49:51.830Z,86.40
2022-10-08T20:52:18.270Z,86.28
2022-10-08T20:54:44.798Z,86.45
2022-10-08T20:57:11.266Z,86.46
2022-10-08T20:59:37.785Z,86.22
2022-10-08T21:02:05.565Z,85.86
2022-10-08T21:04:32.094Z,85.96
2022-10-08T21:06:58.531Z,85.80
2022-10-08T21:09:25.023Z,86.13
2022-10-08T21:11:53.555Z,86.19
2022-10-08T21:14:22.521Z,86.19
2022-10-08T21:16:49.296Z,86.04
2022-10-08T21:19:18.988Z,86.12
2022-10-08T21:21:45.555Z,85.93
2022-10-08T21:24:12.088Z,86.03
2022-10-08T21:26:40.737Z,85.83
2022-10-08T21:29:10.189Z,85.77
2022-10-08T21:31:38.462Z,85.92
2022-10-08T21:34:05.850Z,86.05
2022-10-08T21:36:36.879Z,86.00
2022-10-08T21:39:05.415Z,85.93
2022-10-08T21:41:34.636Z,85.86
2022-10-08T21:44:03.550Z,85.68
2022-10-08T21:46:32.464Z,86.10
2022-10-08T21:49:01.928Z,86.14
2022-10-08T21:51:30.838Z,85.93
2022-10-08T21:53:59.740Z,85.87
2022-10-08T21:56:29.045Z,85.94
2022-10-08T21:59:00.896Z,86.29
2022-10-08T22:01:28.700Z,86.30
2022-10-08T22:03:57.040Z,86.26
2022-10-08T22:06:27.283Z,86.28
2022-10-08T22:09:00.501Z,86.27
2022-10-08T22:11:27.265Z,86.42
2022-10-08T22:13:53.891Z,86.79
2022-10-08T22:16:22.937Z,86.67
2022-10-08T22:18:49.562Z,86.57
2022-10-08T22:21:26.184Z,86.94
2022-10-08T22:23:53.119Z,87.20
2022-10-08T22:26:23.590Z,87.57
2022-10-08T22:28:51.124Z,87.58
2022-10-08T22:31:19.486Z,87.48
2022-10-08T22:33:46.994Z,87.88
2022-10-08T22:36:28.413Z,88.05
2022-10-08T22:38:55.855Z,88.30
2022-10-08T22:41:25.196Z,88.75
2022-10-08T22:43:52.238Z,88.73
2022-10-08T22:46:26.893Z,88.85
2022-10-08T22:48:58.409Z,89.30
2022-10-08T22:51:25.069Z,89.07
2022-10-08T22:53:52.027Z,88.81
2022-10-08T22:56:21.510Z,89.21
2022-10-08T22:58:48.692Z,89.06
2022-10-08T23:01:18.636Z,89.17
2022-10-08T23:03:45.581Z,89.33
2022-10-08T23:06:19.596Z,89.29
2022-10-08T23:08:48.001Z,89.52
2022-10-08T23:11:16.066Z,89.64
2022-10-08T23:13:45.749Z,89.59
2022-10-08T23:16:14.342Z,90.05
2022-10-08T23:18:44.194Z,90.24
2022-10-08T23:21:16.645Z,90.73
2022-10-08T23:23:47.664Z,90.61
2022-10-08T23:26:15.883Z,90.87
2022-10-08T23:28:43.764Z,90.98
2022-10-08T23:31:16.519Z,90.95
2022-10-08T23:33:45.548Z,91.20
2022-10-08T23:36:18.245Z,91.36
2022-10-08T23:38:47.873Z,91.70
2022-10-08T23:41:14.560Z,91.77
2022-10-08T23:43:43.368Z,92.01
2022-10-08T23:46:12.255Z,92.05
2022-10-08T23:48:39.199Z,92.11
2022-10-08T23:51:06.856Z,92.28
2022-10-08T23:53:34.512Z,92.12
2022-10-08T23:56:04.480Z,92.32
2022-10-08T23:58:31.075Z,92.55
